Terminal Aerodrome Forecast
Issued by NWS

Home | Current Version | Previous Version | Text Only | Print | Product List | Glossary On
Versions: 1 2 3 4 5 6 7 8 9 10 11 12 13 14
787
FTUS41 KLWX 092344 RRA
TAFMTN
TAF
KMTN 092344Z 1000/1024 29005KT P6SM OVC015
     FM100400 28009KT P6SM OVC020
     FM100600 28010KT 2SM -SHSN OVC030
     FM101100 28010KT P6SM BKN040
      AMD NOT SKED 1002/1012=

USA.gov is the U.S. government's official web portal to all federal, state and local government web resources and services.